Time;durP1;ratioP1;P1;durP2;ratioP2;P2;SDS_P1;SDS_P2;PMS_P1;PMS_P2;Temp;Humidity;BMP_temperature;BMP_pressure;BME280_temperature;BME280_humidity;BME280_pressure;Samples;Min_cycle;Max_cycle;Signal;HPM_P1;HPM_P2
2022/12/05 15:32:05;;;;;;;0.40;0.40;;;5.40;99.90;4.80;101738.00;;;;5151845;27;20723;-69
2022/12/05 15:34:59;;;;;;;1.30;0.73;;;5.70;99.90;5.40;101739.00;;;;5109108;28;20192;-73
2022/12/05 15:38:09;;;;;;;;;;;;;;;;;;;;;
2022/12/05 15:41:25;;;;;;;;;;;;;;;;;;;;;
2022/12/05 15:44:55;;;;;;;0.10;0.10;;;6.30;99.90;6.40;101753.00;;;;5143220;27;20192;-65
2022/12/05 15:47:46;;;;;;;0.10;0.10;;;6.40;99.90;6.30;101741.00;;;;5109206;27;20186;-73
2022/12/05 15:50:15;;;;;;;0.60;0.60;;;6.60;99.90;6.50;101736.00;;;;5115763;28;20209;-65
2022/12/05 15:53:16;;;;;;;0.10;0.10;;;6.70;99.90;6.60;101730.00;;;;5106682;28;20193;-71
2022/12/05 15:57:11;;;;;;;;;;;;;;;;;;;;;
2022/12/05 16:00:28;;;;;;;0.57;0.57;;;6.50;99.90;6.70;101735.00;;;;5118860;27;20697;-71
2022/12/05 16:03:30;;;;;;;;;;;;;;;;;;;;;
2022/12/05 16:06:42;;;;;;;;;;;;;;;;;;;;;
2022/12/05 16:09:39;;;;;;;0.20;0.20;;;6.80;99.90;6.30;101723.00;;;;5126364;28;20184;-70
2022/12/05 16:12:24;;;;;;;0.20;0.20;;;6.70;99.90;6.80;101729.00;;;;5109417;28;20188;-62
2022/12/05 16:15:09;;;;;;;0.43;0.43;;;6.70;99.90;7.20;101736.00;;;;5130973;27;20635;-68
2022/12/05 16:17:52;;;;;;;0.33;0.33;;;6.90;99.90;6.90;101727.00;;;;5118604;27;20187;-68
2022/12/05 16:20:36;;;;;;;2.70;2.43;;;7.00;99.90;6.90;101725.00;;;;5117635;27;20175;-68
2022/12/05 16:23:20;;;;;;;0.60;0.60;;;7.00;99.90;7.00;101727.00;;;;5137281;27;20183;-68
2022/12/05 16:26:03;;;;;;;0.40;0.40;;;6.90;99.90;7.00;101716.00;;;;5118279;27;20186;-68
2022/12/05 16:28:32;;;;;;;0.30;0.30;;;7.00;99.90;7.20;101715.00;;;;5117452;27;20207;-69
2022/12/05 16:31:24;;;;;;;0.40;0.40;;;7.10;99.90;7.00;101685.00;;;;5117372;27;20740;-68
2022/12/05 16:34:11;;;;;;;0.57;0.57;;;7.10;99.90;7.20;101683.00;;;;5118509;27;20190;-68
2022/12/05 16:37:00;;;;;;;0.20;0.20;;;7.10;99.90;7.20;101719.00;;;;5117575;27;20858;-69
2022/12/05 16:39:27;;;;;;;1.40;1.40;;;7.10;99.90;7.20;101717.00;;;;5116675;27;20188;-68
2022/12/05 16:41:54;;;;;;;0.43;0.43;;;7.10;99.90;7.40;101720.00;;;;5109310;27;20192;-68
2022/12/05 16:45:03;;;;;;;0.27;0.27;;;7.40;99.90;6.30;101720.00;;;;5103599;27;20663;-68
2022/12/05 16:51:15;;;;;;;2.27;2.07;;;6.90;99.90;6.60;101668.00;;;;5052671;27;20832;-68
2022/12/05 16:53:50;;;;;;;0.30;0.30;;;6.90;99.90;6.50;101718.00;;;;5122888;27;20630;-68
2022/12/05 16:56:38;;;;;;;0.83;0.83;;;6.90;99.90;6.60;101713.00;;;;5086132;27;20202;-68
2022/12/05 16:59:06;;;;;;;2.00;0.93;;;6.90;99.90;7.00;101715.00;;;;5103718;27;20192;-69
2022/12/05 17:01:32;;;;;;;0.30;0.30;;;7.00;99.90;6.70;101712.00;;;;5104306;27;20223;-68
2022/12/05 17:03:58;;;;;;;2.90;2.13;;;7.00;99.90;7.20;101695.00;;;;5119598;27;20211;-68
2022/12/05 17:06:42;;;;;;;0.30;0.30;;;7.20;99.90;6.90;101660.00;;;;5103657;27;20310;-68
2022/12/05 17:09:07;;;;;;;0.40;0.40;;;7.10;99.90;7.30;101704.00;;;;5104296;27;20236;-68
2022/12/05 17:11:36;;;;;;;0.40;0.40;;;7.20;99.90;7.40;101715.00;;;;5105163;27;20195;-69
2022/12/05 17:14:23;;;;;;;0.30;0.30;;;7.40;99.90;7.10;101699.00;;;;5105215;27;20179;-68
2022/12/05 17:16:51;;;;;;;0.40;0.40;;;7.30;99.90;7.20;101678.00;;;;5103179;27;20180;-68
2022/12/05 17:19:17;;;;;;;1.20;1.10;;;7.20;99.90;7.40;101731.00;;;;5123269;27;20189;-68
2022/12/05 17:21:46;;;;;;;2.83;2.73;;;7.40;99.90;7.40;101720.00;;;;5121980;27;20254;-69
2022/12/05 17:24:17;;;;;;;1.33;1.30;;;7.50;99.90;7.50;101686.00;;;;5104923;27;20181;-68
2022/12/05 17:27:01;;;;;;;0.43;0.43;;;7.50;99.90;7.20;101687.00;;;;5087094;27;20660;-68
2022/12/05 17:29:27;;;;;;;0.40;0.40;;;7.50;99.90;7.20;101730.00;;;;5104900;27;20208;-68
2022/12/05 17:31:53;;;;;;;0.30;0.30;;;7.30;99.90;6.80;101720.00;;;;5105051;27;20208;-68
2022/12/05 17:34:39;;;;;;;0.43;0.43;;;7.30;99.90;7.10;101719.00;;;;5104334;27;20195;-68
2022/12/05 17:37:04;;;;;;;0.67;0.67;;;7.20;99.90;6.60;101739.00;;;;5112159;27;20520;-68
2022/12/05 17:39:33;;;;;;;1.50;1.37;;;7.20;99.90;7.10;101748.00;;;;5120905;27;20304;-68
2022/12/05 17:41:59;;;;;;;0.57;0.57;;;7.20;99.90;7.00;101739.00;;;;5122891;27;20630;-68
2022/12/05 17:44:25;;;;;;;0.40;0.40;;;7.30;99.90;6.80;101740.00;;;;5104765;27;20300;-68
2022/12/05 17:47:07;;;;;;;1.53;1.43;;;7.20;99.90;6.90;101726.00;;;;5122115;27;20183;-68
2022/12/05 17:49:56;;;;;;;1.03;0.93;;;7.20;99.90;7.00;101729.00;;;;5103562;27;20587;-68
2022/12/05 17:53:02;;;;;;;1.20;0.73;;;7.30;99.90;6.60;101725.00;;;;5089291;28;20188;-68
2022/12/05 17:55:28;;;;;;;0.77;0.77;;;7.00;99.90;6.90;101741.00;;;;5096774;28;20216;-68
2022/12/05 17:57:57;;;;;;;0.80;0.80;;;7.00;99.90;6.90;101740.00;;;;5114427;28;20260;-68
2022/12/05 18:00:28;;;;;;;1.87;1.77;;;7.10;99.90;6.80;101738.00;;;;5096644;28;20207;-68
2022/12/05 18:02:54;;;;;;;0.30;0.30;;;7.10;99.90;6.80;101734.00;;;;5100304;27;20201;-68
2022/12/05 18:05:27;;;;;;;0.40;0.40;;;7.10;99.90;7.00;101733.00;;;;5096544;28;20178;-68
2022/12/05 18:07:56;;;;;;;3.77;3.03;;;7.10;99.90;6.90;101743.00;;;;5114470;28;20195;-68
2022/12/05 18:10:32;;;;;;;0.77;0.77;;;7.20;99.90;6.60;101759.00;;;;5099868;28;20207;-68
2022/12/05 18:12:59;;;;;;;0.60;0.60;;;7.00;99.90;7.20;101708.00;;;;5129485;27;20190;-68
2022/12/05 18:15:46;;;;;;;0.50;0.50;;;7.10;99.90;6.90;101756.00;;;;5093366;28;20185;-68
2022/12/05 18:18:39;;;;;;;5.93;1.83;;;7.20;99.90;6.70;101752.00;;;;5090828;28;20194;-68
2022/12/05 18:21:20;;;;;;;1.27;1.17;;;7.10;99.90;6.40;101718.00;;;;5112971;28;20191;-68
2022/12/05 18:23:56;;;;;;;3.33;3.13;;;7.00;99.90;6.70;101767.00;;;;5077180;28;20655;-68
2022/12/05 18:26:25;;;;;;;0.40;0.40;;;7.00;99.90;7.10;101768.00;;;;5106841;28;20184;-68
2022/12/05 18:28:55;;;;;;;0.40;0.40;;;7.10;99.90;7.40;101774.00;;;;5111248;28;20188;-68
2022/12/05 18:31:22;;;;;;;0.40;0.40;;;7.20;99.90;7.50;101775.00;;;;5092952;28;20213;-68
2022/12/05 18:33:48;;;;;;;0.40;0.40;;;7.40;99.90;7.50;101774.00;;;;5077943;28;20176;-68
2022/12/05 18:36:18;;;;;;;0.93;0.93;;;7.50;99.90;7.40;101771.00;;;;5126267;27;20188;-68
2022/12/05 18:38:55;;;;;;;0.40;0.40;;;7.40;99.90;7.60;101771.00;;;;5095606;28;20256;-68
2022/12/05 18:41:24;;;;;;;1.53;1.33;;;7.60;99.90;7.50;101771.00;;;;5095074;28;20547;-68
2022/12/05 18:43:53;;;;;;;1.13;1.10;;;7.50;99.90;6.80;101771.00;;;;5094974;28;20273;-68
2022/12/05 18:46:39;;;;;;;0.43;0.43;;;7.40;99.90;6.60;101772.00;;;;5092231;28;20191;-68
2022/12/05 18:49:05;;;;;;;0.30;0.30;;;7.20;99.90;7.00;101779.00;;;;5094606;27;20225;-68
2022/12/05 18:51:41;;;;;;;1.53;1.50;;;7.10;99.90;6.80;101745.00;;;;5103297;27;20203;-68
2022/12/05 18:54:27;;;;;;;0.90;0.90;;;7.20;99.90;7.10;101770.00;;;;5121350;27;20194;-68
2022/12/05 18:57:16;;;;;;;0.50;0.50;;;7.20;99.90;7.30;101773.00;;;;5134753;27;20222;-68
2022/12/05 19:00:03;;;;;;;0.73;0.73;;;7.30;99.90;6.80;101744.00;;;;5086522;27;20700;-68
2022/12/05 19:02:32;;;;;;;0.40;0.40;;;7.30;99.90;7.00;101780.00;;;;5102997;27;20255;-68
2022/12/05 19:05:08;;;;;;;0.40;0.40;;;7.20;99.90;6.90;101785.00;;;;5101870;27;20681;-68
2022/12/05 19:07:58;;;;;;;2.30;2.10;;;7.20;99.90;6.20;101797.00;;;;5102111;28;20574;-68
2022/12/05 19:10:46;;;;;;;0.40;0.40;;;6.90;99.90;6.60;101805.00;;;;5101548;27;20653;-68
2022/12/05 19:13:32;;;;;;;0.87;0.87;;;6.80;99.90;6.40;101786.00;;;;5103917;28;20192;-68
2022/12/05 19:16:18;;;;;;;0.90;0.70;;;6.80;99.90;6.80;101800.00;;;;5102422;27;20275;-68
2022/12/05 19:18:55;;;;;;;0.40;0.40;;;6.90;99.90;6.70;101806.00;;;;5103196;28;20666;-68
2022/12/05 19:21:32;;;;;;;0.40;0.40;;;6.90;99.90;6.80;101806.00;;;;5102086;27;20641;-68
2022/12/05 19:24:18;;;;;;;0.50;0.50;;;7.10;99.90;6.50;101809.00;;;;5087545;28;20179;-68
2022/12/05 19:26:48;;;;;;;0.50;0.50;;;6.90;99.90;7.10;101807.00;;;;5085729;28;20648;-68
2022/12/05 19:29:36;;;;;;;0.50;0.50;;;7.10;99.90;6.50;101812.00;;;;5098513;28;20655;-68
2022/12/05 19:32:02;;;;;;;0.73;0.73;;;7.00;99.90;7.00;101819.00;;;;5113453;28;20631;-68
2022/12/05 19:34:37;;;;;;;2.00;1.13;;;7.10;99.90;7.20;101759.00;;;;5099645;28;20199;-68
2022/12/05 19:37:08;;;;;;;1.13;1.13;;;7.20;99.90;6.90;101770.00;;;;5093951;28;20242;-68
2022/12/05 19:39:43;;;;;;;0.53;0.53;;;7.10;99.90;7.40;101803.00;;;;5103976;28;20549;-68
2022/12/05 19:42:09;;;;;;;0.50;0.50;;;7.30;99.90;7.10;101815.00;;;;5103330;28;20702;-68
2022/12/05 19:44:53;;;;;;;0.60;0.60;;;7.30;99.90;7.10;101805.00;;;;5103288;28;20179;-68
2022/12/05 19:47:19;;;;;;;0.73;0.73;;;7.20;99.90;6.90;101814.00;;;;5102966;28;20203;-68
2022/12/05 19:49:48;;;;;;;1.20;1.10;;;7.20;99.90;7.20;101801.00;;;;5102600;28;20230;-68
2022/12/05 19:52:28;;;;;;;0.60;0.60;;;7.20;99.90;7.20;101809.00;;;;5101392;28;20240;-68
2022/12/05 19:54:54;;;;;;;3.50;2.10;;;7.30;99.90;7.10;101815.00;;;;5086870;28;20172;-68
2022/12/05 19:57:20;;;;;;;1.80;1.73;;;7.20;99.90;6.50;101799.00;;;;5102062;28;20187;-68
2022/12/05 19:59:49;;;;;;;0.40;0.40;;;7.00;99.90;6.50;101819.00;;;;5102544;28;20187;-68
2022/12/05 20:02:15;;;;;;;0.40;0.40;;;7.00;99.90;7.00;101811.00;;;;5102055;28;20189;-68
2022/12/05 20:04:41;;;;;;;0.80;0.80;;;7.20;99.90;7.00;101784.00;;;;5101598;28;20664;-68
2022/12/05 20:07:17;;;;;;;0.50;0.50;;;7.20;99.90;6.80;101773.00;;;;5103339;28;20188;-68
2022/12/05 20:09:43;;;;;;;1.90;1.80;;;7.20;99.90;6.80;101816.00;;;;5104688;28;20222;-68
2022/12/05 20:12:16;;;;;;;0.90;0.90;;;7.20;99.90;7.40;101773.00;;;;5085522;28;20187;-68
2022/12/05 20:14:52;;;;;;;0.60;0.60;;;7.30;99.90;7.20;101802.00;;;;5101649;28;20191;-68
2022/12/05 20:17:17;;;;;;;1.43;1.33;;;7.30;99.90;7.30;101803.00;;;;5104250;27;20317;-68
2022/12/05 20:19:44;;;;;;;1.27;1.27;;;7.30;99.90;7.40;101816.00;;;;5105831;27;20287;-68
2022/12/05 20:22:09;;;;;;;1.00;0.97;;;7.40;99.90;7.50;101808.00;;;;5106182;27;20546;-68
2022/12/05 20:24:55;;;;;;;1.17;1.17;;;7.40;99.90;7.20;101768.00;;;;5095439;28;20203;-68
2022/12/05 20:27:26;;;;;;;1.10;1.10;;;7.30;99.90;7.20;101775.00;;;;5098226;28;20212;-68
2022/12/05 20:30:07;;;;;;;0.50;0.50;;;7.30;99.90;7.10;101801.00;;;;5098800;28;20212;-68
2022/12/05 20:33:03;;;;;;;0.50;0.50;;;7.30;99.90;6.90;101769.00;;;;5098654;28;20237;-68
2022/12/05 20:35:28;;;;;;;0.50;0.50;;;7.10;99.90;7.10;101809.00;;;;5027707;28;20254;-69
2022/12/05 20:38:15;;;;;;;0.50;0.50;;;7.10;99.90;7.00;101799.00;;;;5094564;28;20643;-69
2022/12/05 20:41:03;;;;;;;0.40;0.40;;;7.10;99.90;6.80;101767.00;;;;5110997;28;20773;-69
2022/12/05 20:43:29;;;;;;;1.67;1.57;;;7.00;99.90;6.90;101760.00;;;;5082365;28;20300;-69
2022/12/05 20:46:12;;;;;;;0.50;0.50;;;7.20;99.90;6.60;101805.00;;;;5097853;28;20668;-69
2022/12/05 20:48:38;;;;;;;1.50;0.90;;;7.00;99.90;7.00;101804.00;;;;5092726;28;20643;-69
2022/12/05 20:51:12;;;;;;;1.07;0.87;;;7.10;99.90;7.10;101810.00;;;;5097333;28;20196;-69
2022/12/05 20:53:42;;;;;;;1.30;1.30;;;7.20;99.90;6.90;101808.00;;;;5080782;28;20530;-69
2022/12/05 20:56:14;;;;;;;0.63;0.63;;;7.20;99.90;7.20;101803.00;;;;5097705;28;20208;-69
2022/12/05 20:58:43;;;;;;;1.03;1.03;;;7.20;99.90;7.40;101805.00;;;;5097635;28;20218;-69
2022/12/05 21:01:11;;;;;;;0.80;0.80;;;7.40;99.90;7.10;101801.00;;;;5098280;28;20191;-69
2022/12/05 21:03:41;;;;;;;2.57;2.47;;;7.40;99.90;7.40;101780.00;;;;5094163;28;20632;-69
2022/12/05 21:06:14;;;;;;;0.50;0.50;;;7.40;99.90;7.20;101804.00;;;;5087630;28;20180;-69
2022/12/05 21:08:41;;;;;;;0.60;0.60;;;7.40;99.90;7.30;101815.00;;;;5081817;28;20187;-69
2022/12/05 21:11:30;;;;;;;0.70;0.70;;;7.40;99.90;6.90;101804.00;;;;5102412;28;20714;-69
2022/12/05 21:14:18;;;;;;;0.60;0.60;;;7.20;99.90;6.70;101808.00;;;;5097887;28;20184;-69
2022/12/05 21:16:46;;;;;;;0.77;0.77;;;7.10;99.90;7.20;101812.00;;;;5115239;28;20223;-69
2022/12/05 21:19:21;;;;;;;1.37;1.37;;;7.20;99.90;7.50;101808.00;;;;5093484;28;20185;-69
2022/12/05 21:21:53;;;;;;;0.50;0.50;;;7.40;99.90;7.10;101814.00;;;;5091709;28;20212;-69
2022/12/05 21:24:22;;;;;;;0.60;0.60;;;7.40;99.90;6.70;101804.00;;;;5075915;28;20188;-69
2022/12/05 21:26:50;;;;;;;0.50;0.50;;;7.20;99.90;6.80;101805.00;;;;5114196;28;20233;-69
2022/12/05 21:29:19;;;;;;;0.90;0.90;;;7.10;99.90;6.80;101812.00;;;;5078798;28;20172;-69
2022/12/05 21:31:58;;;;;;;0.97;0.97;;;7.20;99.90;6.50;101814.00;;;;5094080;28;20181;-69
2022/12/05 21:34:26;;;;;;;1.23;1.13;;;7.10;99.90;6.60;101811.00;;;;5095532;28;20187;-69
2022/12/05 21:36:58;;;;;;;0.90;0.90;;;7.00;99.90;6.50;101813.00;;;;5095935;28;20183;-69
2022/12/05 21:39:23;;;;;;;0.60;0.60;;;7.00;99.90;6.50;101815.00;;;;5131220;27;20209;-69
2022/12/05 21:41:49;;;;;;;0.57;0.57;;;6.80;99.90;6.70;101803.00;;;;5114730;28;20180;-69
2022/12/05 21:44:18;;;;;;;1.30;1.13;;;6.90;99.90;6.60;101813.00;;;;5083954;28;20188;-69
2022/12/05 21:46:49;;;;;;;1.53;1.43;;;6.90;99.90;6.80;101810.00;;;;5092211;28;20207;-69
2022/12/05 21:49:24;;;;;;;0.90;0.90;;;7.00;99.90;6.50;101795.00;;;;5113909;28;20206;-69
2022/12/05 21:52:02;;;;;;;1.47;1.47;;;6.90;99.90;6.70;101814.00;;;;5096295;28;20199;-69
2022/12/05 21:54:28;;;;;;;0.50;0.50;;;6.90;99.90;6.80;101811.00;;;;5096867;28;20191;-69
2022/12/05 21:56:54;;;;;;;0.87;0.87;;;6.90;99.90;7.30;101766.00;;;;5113662;28;20187;-69
2022/12/05 21:59:21;;;;;;;0.70;0.70;;;7.20;99.90;6.90;101820.00;;;;5075454;28;20206;-69
2022/12/05 22:01:53;;;;;;;0.60;0.60;;;7.20;99.90;6.40;101776.00;;;;5096526;28;20665;-69
2022/12/05 22:04:19;;;;;;;0.50;0.50;;;7.00;99.90;7.00;101821.00;;;;5092020;28;20642;-69
2022/12/05 22:06:44;;;;;;;0.50;0.50;;;7.10;99.90;6.80;101824.00;;;;5127075;27;20191;-69
2022/12/05 22:09:14;;;;;;;0.50;0.50;;;7.10;99.90;7.00;101818.00;;;;5092910;28;20191;-69
2022/12/05 22:11:40;;;;;;;1.13;0.93;;;7.10;99.90;7.00;101826.00;;;;5112995;28;20195;-69
2022/12/05 22:14:05;;;;;;;1.27;1.27;;;7.10;99.90;6.90;101823.00;;;;5092720;28;20185;-69
2022/12/05 22:16:35;;;;;;;2.43;2.33;;;7.10;99.90;7.10;101825.00;;;;5114096;28;20184;-69
2022/12/05 22:19:02;;;;;;;1.73;1.60;;;7.20;99.90;7.10;101818.00;;;;5096160;28;20188;-69
2022/12/05 22:33:26;;;;;;;0.20;0.20;;;6.40;99.90;5.90;101858.00;;;;5074930;28;20548;-68
2022/12/05 22:35:58;;;;;;;0.27;0.27;;;6.40;99.90;6.40;101837.00;;;;5047461;28;20552;-68
2022/12/05 22:38:32;;;;;;;0.67;0.67;;;6.70;99.90;6.50;101844.00;;;;5047704;28;20301;-68
2022/12/05 22:41:18;;;;;;;0.30;0.30;;;6.80;99.90;6.40;101835.00;;;;5044648;28;20630;-68
2022/12/05 22:44:07;;;;;;;0.30;0.30;;;6.80;99.90;6.60;101851.00;;;;5047726;28;20193;-68
2022/12/05 22:46:56;;;;;;;0.33;0.33;;;6.90;99.90;6.70;101841.00;;;;5048375;28;20194;-68
2022/12/05 22:49:34;;;;;;;0.40;0.40;;;7.00;99.90;7.20;101789.00;;;;5046674;28;20299;-68
2022/12/05 22:52:11;;;;;;;0.43;0.43;;;7.20;99.90;6.70;101841.00;;;;5029807;28;20206;-68
2022/12/05 22:55:04;;;;;;;0.50;0.50;;;7.10;99.90;6.80;101840.00;;;;5048658;28;20189;-68
2022/12/05 22:57:32;;;;;;;0.60;0.60;;;7.10;99.90;6.90;101839.00;;;;5043869;28;20198;-69
2022/12/05 23:00:16;;;;;;;0.40;0.40;;;7.20;99.90;6.90;101828.00;;;;5050222;28;20186;-68
2022/12/05 23:02:51;;;;;;;0.50;0.50;;;7.10;99.90;7.00;101831.00;;;;5054545;28;20204;-69
2022/12/05 23:05:49;;;;;;;0.60;0.60;;;7.20;99.90;7.10;101828.00;;;;5023233;28;20652;-68
2022/12/05 23:08:26;;;;;;;0.50;0.50;;;7.30;99.90;6.70;101837.00;;;;5034349;28;20216;-69
2022/12/05 23:11:20;;;;;;;0.90;0.90;;;7.10;99.90;7.20;101831.00;;;;5048458;28;20604;-69
2022/12/05 23:14:26;;;;;;;1.10;1.10;;;7.20;99.90;7.00;101800.00;;;;5043206;28;20213;-68
2022/12/05 23:17:25;;;;;;;0.60;0.60;;;7.30;99.90;6.90;101768.00;;;;5046871;28;20641;-68
2022/12/05 23:20:33;;;;;;;0.60;0.60;;;7.20;99.90;7.10;101813.00;;;;5040572;28;20210;-69
2022/12/05 23:23:21;;;;;;;0.50;0.50;;;7.30;99.90;7.40;101811.00;;;;5048252;28;20656;-68
2022/12/05 23:26:30;;;;;;;0.60;0.60;;;7.30;99.90;6.90;101808.00;;;;5044416;28;20268;-68
2022/12/05 23:29:21;;;;;;;6.50;2.23;;;7.50;99.90;7.30;101805.00;;;;5044062;28;20558;-68
2022/12/05 23:32:26;;;;;;;1.43;1.33;;;7.40;99.90;6.80;101811.00;;;;5047610;28;20325;-68
2022/12/05 23:35:23;;;;;;;0.60;0.60;;;7.30;99.90;7.00;101819.00;;;;5028732;28;20199;-68
2022/12/05 23:38:29;;;;;;;0.53;0.53;;;7.30;99.90;7.10;101767.00;;;;5044885;28;20205;-68
2022/12/05 23:41:31;;;;;;;0.87;0.87;;;7.20;99.90;6.80;101815.00;;;;5045366;28;20225;-69
2022/12/05 23:44:24;;;;;;;0.77;0.77;;;7.20;99.90;6.40;101807.00;;;;5022313;28;20237;-68
2022/12/05 23:47:33;;;;;;;0.40;0.40;;;7.00;99.90;6.60;101804.00;;;;5034731;28;20190;-68
2022/12/05 23:50:29;;;;;;;1.10;1.00;;;7.10;99.90;7.30;101815.00;;;;5025981;28;20654;-68
2022/12/05 23:53:40;;;;;;;0.60;0.60;;;7.30;99.90;7.00;101808.00;;;;5035640;28;20563;-68
2022/12/05 23:56:27;;;;;;;0.97;0.97;;;7.30;99.90;7.00;101809.00;;;;5033717;28;20183;-68
2022/12/05 23:59:32;;;;;;;0.50;0.50;;;7.30;99.90;7.20;101793.00;;;;5034999;28;20192;-68
